sensor_id;sensor_type;location;lat;lon;timestamp;P1;durP1;ratioP1;P2;durP2;ratioP2
54145;SDS011;65909;49.422;7.738;2023-07-20T00:02:18;3.30;;;1.70;;
54145;SDS011;65909;49.422;7.738;2023-07-20T00:04:43;3.37;;;2.13;;
54145;SDS011;65909;49.422;7.738;2023-07-20T00:07:08;3.87;;;1.90;;
54145;SDS011;65909;49.422;7.738;2023-07-20T00:09:34;6.40;;;3.00;;
54145;SDS011;65909;49.422;7.738;2023-07-20T00:11:59;4.23;;;1.87;;
54145;SDS011;65909;49.422;7.738;2023-07-20T00:14:25;3.33;;;2.20;;
54145;SDS011;65909;49.422;7.738;2023-07-20T00:16:50;2.47;;;1.65;;
54145;SDS011;65909;49.422;7.738;2023-07-20T00:19:24;3.42;;;1.70;;
54145;SDS011;65909;49.422;7.738;2023-07-20T00:21:49;3.65;;;2.05;;
54145;SDS011;65909;49.422;7.738;2023-07-20T00:24:14;4.53;;;1.80;;
54145;SDS011;65909;49.422;7.738;2023-07-20T00:26:39;4.27;;;1.73;;
54145;SDS011;65909;49.422;7.738;2023-07-20T00:29:05;3.15;;;1.50;;
54145;SDS011;65909;49.422;7.738;2023-07-20T00:31:30;2.83;;;1.70;;
54145;SDS011;65909;49.422;7.738;2023-07-20T00:33:55;2.47;;;1.63;;
54145;SDS011;65909;49.422;7.738;2023-07-20T00:36:20;7.77;;;1.90;;
54145;SDS011;65909;49.422;7.738;2023-07-20T00:38:46;3.40;;;1.67;;
54145;SDS011;65909;49.422;7.738;2023-07-20T00:41:11;2.67;;;1.70;;
54145;SDS011;65909;49.422;7.738;2023-07-20T00:43:38;2.88;;;1.90;;
54145;SDS011;65909;49.422;7.738;2023-07-20T00:46:06;3.95;;;1.63;;
54145;SDS011;65909;49.422;7.738;2023-07-20T00:48:31;5.05;;;1.88;;
54145;SDS011;65909;49.422;7.738;2023-07-20T00:50:57;4.43;;;1.60;;
54145;SDS011;65909;49.422;7.738;2023-07-20T00:53:23;5.78;;;1.88;;
54145;SDS011;65909;49.422;7.738;2023-07-20T00:55:48;4.17;;;1.73;;
54145;SDS011;65909;49.422;7.738;2023-07-20T00:58:13;4.10;;;1.80;;
54145;SDS011;65909;49.422;7.738;2023-07-20T01:00:38;3.77;;;2.03;;
54145;SDS011;65909;49.422;7.738;2023-07-20T01:03:04;11.57;;;2.93;;
54145;SDS011;65909;49.422;7.738;2023-07-20T01:05:48;3.30;;;1.70;;
54145;SDS011;65909;49.422;7.738;2023-07-20T01:08:40;5.47;;;1.77;;
54145;SDS011;65909;49.422;7.738;2023-07-20T01:11:05;3.97;;;1.60;;
54145;SDS011;65909;49.422;7.738;2023-07-20T01:13:31;5.72;;;2.00;;
54145;SDS011;65909;49.422;7.738;2023-07-20T01:15:57;3.63;;;2.08;;
54145;SDS011;65909;49.422;7.738;2023-07-20T01:18:25;3.78;;;1.80;;
54145;SDS011;65909;49.422;7.738;2023-07-20T01:20:50;3.23;;;1.53;;
54145;SDS011;65909;49.422;7.738;2023-07-20T01:23:37;5.95;;;1.60;;
54145;SDS011;65909;49.422;7.738;2023-07-20T01:26:11;8.13;;;1.95;;
54145;SDS011;65909;49.422;7.738;2023-07-20T01:29:27;4.50;;;1.80;;
54145;SDS011;65909;49.422;7.738;2023-07-20T01:33:55;4.50;;;1.75;;
54145;SDS011;65909;49.422;7.738;2023-07-20T01:36:24;3.58;;;1.83;;
54145;SDS011;65909;49.422;7.738;2023-07-20T01:38:51;4.70;;;2.13;;
54145;SDS011;65909;49.422;7.738;2023-07-20T01:41:16;3.35;;;1.90;;
54145;SDS011;65909;49.422;7.738;2023-07-20T01:43:43;4.57;;;2.03;;
54145;SDS011;65909;49.422;7.738;2023-07-20T01:46:08;3.58;;;1.70;;
54145;SDS011;65909;49.422;7.738;2023-07-20T01:48:33;3.23;;;1.70;;
54145;SDS011;65909;49.422;7.738;2023-07-20T01:50:58;3.90;;;1.70;;
54145;SDS011;65909;49.422;7.738;2023-07-20T01:53:23;3.43;;;1.90;;
54145;SDS011;65909;49.422;7.738;2023-07-20T01:55:49;3.23;;;1.87;;
54145;SDS011;65909;49.422;7.738;2023-07-20T01:58:14;3.58;;;1.83;;
54145;SDS011;65909;49.422;7.738;2023-07-20T02:00:40;4.85;;;1.80;;
54145;SDS011;65909;49.422;7.738;2023-07-20T02:03:05;4.32;;;2.08;;
54145;SDS011;65909;49.422;7.738;2023-07-20T02:05:30;4.07;;;1.90;;
54145;SDS011;65909;49.422;7.738;2023-07-20T02:07:55;8.07;;;2.57;;
54145;SDS011;65909;49.422;7.738;2023-07-20T02:10:20;3.47;;;2.10;;
54145;SDS011;65909;49.422;7.738;2023-07-20T02:12:46;2.73;;;1.80;;
54145;SDS011;65909;49.422;7.738;2023-07-20T02:15:11;5.95;;;2.25;;
54145;SDS011;65909;49.422;7.738;2023-07-20T02:17:38;6.05;;;2.00;;
54145;SDS011;65909;49.422;7.738;2023-07-20T02:20:06;5.82;;;2.03;;
54145;SDS011;65909;49.422;7.738;2023-07-20T02:22:33;3.55;;;1.98;;
54145;SDS011;65909;49.422;7.738;2023-07-20T02:24:58;3.20;;;1.77;;
54145;SDS011;65909;49.422;7.738;2023-07-20T02:27:24;3.33;;;2.00;;
54145;SDS011;65909;49.422;7.738;2023-07-20T02:29:49;4.70;;;2.03;;
54145;SDS011;65909;49.422;7.738;2023-07-20T02:32:15;2.88;;;2.10;;
54145;SDS011;65909;49.422;7.738;2023-07-20T02:34:40;1.63;;;1.40;;
54145;SDS011;65909;49.422;7.738;2023-07-20T02:37:05;3.27;;;1.80;;
54145;SDS011;65909;49.422;7.738;2023-07-20T02:39:30;5.60;;;2.27;;
54145;SDS011;65909;49.422;7.738;2023-07-20T02:41:56;2.90;;;1.67;;
54145;SDS011;65909;49.422;7.738;2023-07-20T02:44:21;3.87;;;2.07;;
54145;SDS011;65909;49.422;7.738;2023-07-20T02:46:46;6.17;;;2.10;;
54145;SDS011;65909;49.422;7.738;2023-07-20T02:49:11;3.77;;;2.10;;
54145;SDS011;65909;49.422;7.738;2023-07-20T02:51:37;5.10;;;1.95;;
54145;SDS011;65909;49.422;7.738;2023-07-20T02:54:02;4.47;;;2.07;;
54145;SDS011;65909;49.422;7.738;2023-07-20T02:56:28;3.10;;;1.90;;
54145;SDS011;65909;49.422;7.738;2023-07-20T02:58:53;5.78;;;2.28;;
54145;SDS011;65909;49.422;7.738;2023-07-20T03:01:18;3.63;;;2.20;;
54145;SDS011;65909;49.422;7.738;2023-07-20T03:03:44;3.87;;;2.17;;
54145;SDS011;65909;49.422;7.738;2023-07-20T03:06:16;6.97;;;2.97;;
54145;SDS011;65909;49.422;7.738;2023-07-20T03:08:41;3.92;;;1.92;;
54145;SDS011;65909;49.422;7.738;2023-07-20T03:11:07;5.22;;;2.00;;
54145;SDS011;65909;49.422;7.738;2023-07-20T03:13:32;5.63;;;2.40;;
54145;SDS011;65909;49.422;7.738;2023-07-20T03:15:57;5.80;;;1.90;;
54145;SDS011;65909;49.422;7.738;2023-07-20T03:18:23;6.43;;;2.17;;
54145;SDS011;65909;49.422;7.738;2023-07-20T03:20:48;3.23;;;1.80;;
54145;SDS011;65909;49.422;7.738;2023-07-20T03:23:13;2.85;;;1.95;;
54145;SDS011;65909;49.422;7.738;2023-07-20T03:25:39;3.90;;;1.73;;
54145;SDS011;65909;49.422;7.738;2023-07-20T03:28:04;6.73;;;1.87;;
54145;SDS011;65909;49.422;7.738;2023-07-20T03:30:29;5.05;;;1.63;;
54145;SDS011;65909;49.422;7.738;2023-07-20T03:32:55;5.90;;;1.70;;
54145;SDS011;65909;49.422;7.738;2023-07-20T03:35:20;5.70;;;1.70;;
54145;SDS011;65909;49.422;7.738;2023-07-20T03:37:45;3.43;;;1.83;;
54145;SDS011;65909;49.422;7.738;2023-07-20T03:40:10;5.40;;;2.03;;
54145;SDS011;65909;49.422;7.738;2023-07-20T03:42:35;2.53;;;1.92;;
54145;SDS011;65909;49.422;7.738;2023-07-20T03:45:01;2.75;;;2.10;;
54145;SDS011;65909;49.422;7.738;2023-07-20T03:47:29;4.75;;;2.22;;
54145;SDS011;65909;49.422;7.738;2023-07-20T03:49:54;4.50;;;2.47;;
54145;SDS011;65909;49.422;7.738;2023-07-20T03:52:19;5.00;;;2.17;;
54145;SDS011;65909;49.422;7.738;2023-07-20T03:54:45;3.87;;;2.23;;
54145;SDS011;65909;49.422;7.738;2023-07-20T03:57:10;4.82;;;1.90;;
54145;SDS011;65909;49.422;7.738;2023-07-20T03:59:36;5.33;;;1.87;;
54145;SDS011;65909;49.422;7.738;2023-07-20T04:02:01;4.43;;;2.20;;
54145;SDS011;65909;49.422;7.738;2023-07-20T04:04:27;3.77;;;2.00;;
54145;SDS011;65909;49.422;7.738;2023-07-20T04:06:52;5.47;;;2.40;;
54145;SDS011;65909;49.422;7.738;2023-07-20T04:09:18;4.87;;;2.20;;
54145;SDS011;65909;49.422;7.738;2023-07-20T04:11:43;5.17;;;2.40;;
54145;SDS011;65909;49.422;7.738;2023-07-20T04:14:08;4.77;;;2.50;;
54145;SDS011;65909;49.422;7.738;2023-07-20T04:16:33;3.93;;;2.20;;
54145;SDS011;65909;49.422;7.738;2023-07-20T04:18:58;5.13;;;2.10;;
54145;SDS011;65909;49.422;7.738;2023-07-20T04:21:25;6.47;;;2.10;;
54145;SDS011;65909;49.422;7.738;2023-07-20T04:23:50;4.95;;;2.17;;
54145;SDS011;65909;49.422;7.738;2023-07-20T04:26:15;2.50;;;1.70;;
54145;SDS011;65909;49.422;7.738;2023-07-20T04:28:41;3.60;;;1.87;;
54145;SDS011;65909;49.422;7.738;2023-07-20T04:31:11;6.43;;;2.60;;
54145;SDS011;65909;49.422;7.738;2023-07-20T04:33:37;6.78;;;2.63;;
54145;SDS011;65909;49.422;7.738;2023-07-20T04:36:02;3.37;;;2.07;;
54145;SDS011;65909;49.422;7.738;2023-07-20T04:38:28;4.38;;;2.15;;
54145;SDS011;65909;49.422;7.738;2023-07-20T04:40:53;7.37;;;2.50;;
54145;SDS011;65909;49.422;7.738;2023-07-20T04:43:18;3.50;;;2.30;;
54145;SDS011;65909;49.422;7.738;2023-07-20T04:45:43;7.60;;;3.23;;
54145;SDS011;65909;49.422;7.738;2023-07-20T04:48:09;4.67;;;2.07;;
54145;SDS011;65909;49.422;7.738;2023-07-20T04:50:36;4.40;;;2.80;;
54145;SDS011;65909;49.422;7.738;2023-07-20T04:53:01;3.90;;;2.00;;
54145;SDS011;65909;49.422;7.738;2023-07-20T04:55:27;4.68;;;2.35;;
54145;SDS011;65909;49.422;7.738;2023-07-20T04:57:52;5.93;;;2.58;;
54145;SDS011;65909;49.422;7.738;2023-07-20T05:00:18;5.47;;;2.23;;
54145;SDS011;65909;49.422;7.738;2023-07-20T05:02:44;5.00;;;2.22;;
54145;SDS011;65909;49.422;7.738;2023-07-20T05:05:09;3.17;;;2.27;;
54145;SDS011;65909;49.422;7.738;2023-07-20T05:07:34;4.60;;;2.13;;
54145;SDS011;65909;49.422;7.738;2023-07-20T05:09:59;4.80;;;2.13;;
54145;SDS011;65909;49.422;7.738;2023-07-20T05:12:25;4.88;;;2.20;;
54145;SDS011;65909;49.422;7.738;2023-07-20T05:14:50;4.25;;;2.13;;
54145;SDS011;65909;49.422;7.738;2023-07-20T05:17:15;4.73;;;2.13;;
54145;SDS011;65909;49.422;7.738;2023-07-20T05:19:41;4.13;;;2.17;;
54145;SDS011;65909;49.422;7.738;2023-07-20T05:22:06;3.77;;;1.87;;
54145;SDS011;65909;49.422;7.738;2023-07-20T05:24:31;2.77;;;1.77;;
54145;SDS011;65909;49.422;7.738;2023-07-20T05:26:57;4.00;;;2.10;;
54145;SDS011;65909;49.422;7.738;2023-07-20T05:29:23;3.38;;;1.60;;
54145;SDS011;65909;49.422;7.738;2023-07-20T05:31:48;4.17;;;2.40;;
54145;SDS011;65909;49.422;7.738;2023-07-20T05:34:13;3.60;;;1.87;;
54145;SDS011;65909;49.422;7.738;2023-07-20T05:36:39;3.40;;;2.17;;
54145;SDS011;65909;49.422;7.738;2023-07-20T05:39:04;5.28;;;2.03;;
54145;SDS011;65909;49.422;7.738;2023-07-20T05:41:29;3.43;;;2.03;;
54145;SDS011;65909;49.422;7.738;2023-07-20T05:43:54;4.63;;;2.20;;
54145;SDS011;65909;49.422;7.738;2023-07-20T05:46:20;3.83;;;2.00;;
54145;SDS011;65909;49.422;7.738;2023-07-20T05:48:45;9.13;;;2.57;;
54145;SDS011;65909;49.422;7.738;2023-07-20T05:51:10;3.47;;;1.90;;
54145;SDS011;65909;49.422;7.738;2023-07-20T05:53:36;7.97;;;2.20;;
54145;SDS011;65909;49.422;7.738;2023-07-20T05:56:01;7.93;;;2.40;;
54145;SDS011;65909;49.422;7.738;2023-07-20T05:58:27;5.40;;;2.20;;
54145;SDS011;65909;49.422;7.738;2023-07-20T06:00:53;6.50;;;2.17;;
54145;SDS011;65909;49.422;7.738;2023-07-20T06:03:18;5.80;;;2.40;;
54145;SDS011;65909;49.422;7.738;2023-07-20T06:05:43;4.95;;;2.50;;
54145;SDS011;65909;49.422;7.738;2023-07-20T06:08:08;6.67;;;2.20;;
54145;SDS011;65909;49.422;7.738;2023-07-20T06:10:34;2.40;;;1.83;;
54145;SDS011;65909;49.422;7.738;2023-07-20T06:12:59;4.33;;;2.10;;
54145;SDS011;65909;49.422;7.738;2023-07-20T06:15:28;4.63;;;2.37;;
54145;SDS011;65909;49.422;7.738;2023-07-20T06:17:53;5.07;;;2.63;;
54145;SDS011;65909;49.422;7.738;2023-07-20T06:20:19;5.85;;;2.60;;
54145;SDS011;65909;49.422;7.738;2023-07-20T06:22:44;5.07;;;2.40;;
54145;SDS011;65909;49.422;7.738;2023-07-20T06:25:10;6.85;;;2.65;;
54145;SDS011;65909;49.422;7.738;2023-07-20T06:27:36;3.58;;;2.10;;
54145;SDS011;65909;49.422;7.738;2023-07-20T06:30:01;4.68;;;1.88;;
54145;SDS011;65909;49.422;7.738;2023-07-20T06:32:26;4.10;;;2.20;;
54145;SDS011;65909;49.422;7.738;2023-07-20T06:34:51;4.07;;;2.17;;
54145;SDS011;65909;49.422;7.738;2023-07-20T06:37:16;3.03;;;2.13;;
54145;SDS011;65909;49.422;7.738;2023-07-20T06:39:42;3.37;;;2.20;;
54145;SDS011;65909;49.422;7.738;2023-07-20T06:42:08;7.88;;;2.22;;
54145;SDS011;65909;49.422;7.738;2023-07-20T06:44:33;4.83;;;2.10;;
54145;SDS011;65909;49.422;7.738;2023-07-20T06:46:58;3.77;;;2.33;;
54145;SDS011;65909;49.422;7.738;2023-07-20T06:49:27;4.93;;;1.90;;
54145;SDS011;65909;49.422;7.738;2023-07-20T06:51:52;5.07;;;2.05;;
54145;SDS011;65909;49.422;7.738;2023-07-20T06:54:17;2.72;;;1.77;;
54145;SDS011;65909;49.422;7.738;2023-07-20T06:56:42;6.57;;;2.00;;
54145;SDS011;65909;49.422;7.738;2023-07-20T06:59:08;3.73;;;1.93;;
54145;SDS011;65909;49.422;7.738;2023-07-20T07:01:33;4.50;;;2.07;;
54145;SDS011;65909;49.422;7.738;2023-07-20T07:03:58;3.77;;;2.03;;
54145;SDS011;65909;49.422;7.738;2023-07-20T07:06:23;5.03;;;1.88;;
54145;SDS011;65909;49.422;7.738;2023-07-20T07:08:49;2.67;;;1.93;;
54145;SDS011;65909;49.422;7.738;2023-07-20T07:11:14;3.23;;;1.87;;
54145;SDS011;65909;49.422;7.738;2023-07-20T07:13:39;4.67;;;2.47;;
54145;SDS011;65909;49.422;7.738;2023-07-20T07:16:04;3.07;;;2.10;;
54145;SDS011;65909;49.422;7.738;2023-07-20T07:18:29;6.03;;;2.40;;
54145;SDS011;65909;49.422;7.738;2023-07-20T07:20:54;2.93;;;1.60;;
54145;SDS011;65909;49.422;7.738;2023-07-20T07:23:20;3.27;;;1.80;;
54145;SDS011;65909;49.422;7.738;2023-07-20T07:25:45;3.35;;;1.80;;
54145;SDS011;65909;49.422;7.738;2023-07-20T07:28:11;4.38;;;1.83;;
54145;SDS011;65909;49.422;7.738;2023-07-20T07:30:36;6.23;;;1.87;;
54145;SDS011;65909;49.422;7.738;2023-07-20T07:33:01;3.57;;;1.70;;
54145;SDS011;65909;49.422;7.738;2023-07-20T07:35:26;5.00;;;1.60;;
54145;SDS011;65909;49.422;7.738;2023-07-20T07:37:52;2.87;;;1.50;;
54145;SDS011;65909;49.422;7.738;2023-07-20T07:40:17;3.80;;;1.93;;
54145;SDS011;65909;49.422;7.738;2023-07-20T07:42:43;4.47;;;1.90;;
54145;SDS011;65909;49.422;7.738;2023-07-20T07:45:09;2.42;;;1.48;;
54145;SDS011;65909;49.422;7.738;2023-07-20T07:47:34;2.67;;;1.87;;
54145;SDS011;65909;49.422;7.738;2023-07-20T07:49:59;4.07;;;1.77;;
54145;SDS011;65909;49.422;7.738;2023-07-20T07:52:24;3.37;;;1.80;;
54145;SDS011;65909;49.422;7.738;2023-07-20T07:54:50;3.93;;;1.63;;
54145;SDS011;65909;49.422;7.738;2023-07-20T07:57:15;2.83;;;1.60;;
54145;SDS011;65909;49.422;7.738;2023-07-20T07:59:40;3.93;;;2.03;;
54145;SDS011;65909;49.422;7.738;2023-07-20T08:02:05;4.43;;;1.87;;
54145;SDS011;65909;49.422;7.738;2023-07-20T08:04:30;2.80;;;1.50;;
54145;SDS011;65909;49.422;7.738;2023-07-20T08:06:56;1.63;;;1.35;;
54145;SDS011;65909;49.422;7.738;2023-07-20T08:09:21;2.97;;;1.75;;
54145;SDS011;65909;49.422;7.738;2023-07-20T08:11:47;3.23;;;1.70;;
54145;SDS011;65909;49.422;7.738;2023-07-20T08:14:13;2.88;;;1.52;;
54145;SDS011;65909;49.422;7.738;2023-07-20T08:16:38;4.50;;;2.47;;
54145;SDS011;65909;49.422;7.738;2023-07-20T08:19:04;2.37;;;1.50;;
54145;SDS011;65909;49.422;7.738;2023-07-20T08:21:29;1.73;;;1.50;;
54145;SDS011;65909;49.422;7.738;2023-07-20T08:23:54;3.13;;;2.03;;
54145;SDS011;65909;49.422;7.738;2023-07-20T08:26:19;4.60;;;1.63;;
54145;SDS011;65909;49.422;7.738;2023-07-20T08:28:47;2.92;;;1.52;;
54145;SDS011;65909;49.422;7.738;2023-07-20T08:31:13;4.20;;;1.20;;
54145;SDS011;65909;49.422;7.738;2023-07-20T08:33:38;4.07;;;1.40;;
54145;SDS011;65909;49.422;7.738;2023-07-20T08:36:03;1.60;;;1.30;;
54145;SDS011;65909;49.422;7.738;2023-07-20T08:38:29;2.58;;;1.42;;
54145;SDS011;65909;49.422;7.738;2023-07-20T08:40:54;3.97;;;1.77;;
54145;SDS011;65909;49.422;7.738;2023-07-20T08:43:20;5.18;;;1.52;;
54145;SDS011;65909;49.422;7.738;2023-07-20T08:45:48;2.45;;;1.40;;
54145;SDS011;65909;49.422;7.738;2023-07-20T08:48:14;3.78;;;1.75;;
54145;SDS011;65909;49.422;7.738;2023-07-20T08:50:40;2.05;;;1.58;;
54145;SDS011;65909;49.422;7.738;2023-07-20T08:53:06;2.70;;;1.80;;
54145;SDS011;65909;49.422;7.738;2023-07-20T08:55:31;4.20;;;1.80;;
54145;SDS011;65909;49.422;7.738;2023-07-20T08:57:57;3.03;;;1.63;;
54145;SDS011;65909;49.422;7.738;2023-07-20T09:00:23;2.47;;;1.65;;
54145;SDS011;65909;49.422;7.738;2023-07-20T09:02:49;3.85;;;1.77;;
54145;SDS011;65909;49.422;7.738;2023-07-20T09:05:15;2.72;;;1.45;;
54145;SDS011;65909;49.422;7.738;2023-07-20T09:07:40;6.90;;;1.80;;
54145;SDS011;65909;49.422;7.738;2023-07-20T09:10:06;2.67;;;1.50;;
54145;SDS011;65909;49.422;7.738;2023-07-20T09:12:41;5.97;;;1.70;;
54145;SDS011;65909;49.422;7.738;2023-07-20T09:15:07;2.53;;;1.70;;
54145;SDS011;65909;49.422;7.738;2023-07-20T09:17:32;5.57;;;1.88;;
54145;SDS011;65909;49.422;7.738;2023-07-20T09:19:58;2.55;;;1.48;;
54145;SDS011;65909;49.422;7.738;2023-07-20T09:22:29;3.00;;;1.58;;
54145;SDS011;65909;49.422;7.738;2023-07-20T09:24:55;4.45;;;1.75;;
54145;SDS011;65909;49.422;7.738;2023-07-20T09:27:20;1.90;;;1.50;;
54145;SDS011;65909;49.422;7.738;2023-07-20T09:29:49;3.73;;;1.50;;
54145;SDS011;65909;49.422;7.738;2023-07-20T09:32:17;4.20;;;1.50;;
54145;SDS011;65909;49.422;7.738;2023-07-20T09:34:43;3.53;;;1.90;;
54145;SDS011;65909;49.422;7.738;2023-07-20T09:37:08;4.93;;;1.88;;
54145;SDS011;65909;49.422;7.738;2023-07-20T09:39:40;3.80;;;1.70;;
54145;SDS011;65909;49.422;7.738;2023-07-20T09:42:07;3.53;;;1.88;;
54145;SDS011;65909;49.422;7.738;2023-07-20T09:44:33;2.47;;;1.50;;
54145;SDS011;65909;49.422;7.738;2023-07-20T09:46:59;2.30;;;1.40;;
54145;SDS011;65909;49.422;7.738;2023-07-20T09:49:24;2.97;;;1.60;;
54145;SDS011;65909;49.422;7.738;2023-07-20T09:51:49;2.57;;;1.63;;
54145;SDS011;65909;49.422;7.738;2023-07-20T09:54:15;1.83;;;1.30;;
54145;SDS011;65909;49.422;7.738;2023-07-20T09:56:41;3.92;;;1.88;;
54145;SDS011;65909;49.422;7.738;2023-07-20T09:59:07;2.22;;;1.33;;
54145;SDS011;65909;49.422;7.738;2023-07-20T10:01:32;2.43;;;1.60;;
54145;SDS011;65909;49.422;7.738;2023-07-20T10:03:59;1.70;;;1.40;;
54145;SDS011;65909;49.422;7.738;2023-07-20T10:06:27;1.88;;;1.42;;
54145;SDS011;65909;49.422;7.738;2023-07-20T10:08:53;3.63;;;1.70;;
54145;SDS011;65909;49.422;7.738;2023-07-20T10:11:21;1.90;;;1.50;;
54145;SDS011;65909;49.422;7.738;2023-07-20T10:13:46;1.65;;;1.30;;
54145;SDS011;65909;49.422;7.738;2023-07-20T10:16:19;2.85;;;1.67;;
54145;SDS011;65909;49.422;7.738;2023-07-20T10:18:51;2.67;;;1.73;;
54145;SDS011;65909;49.422;7.738;2023-07-20T10:21:20;1.67;;;1.27;;
54145;SDS011;65909;49.422;7.738;2023-07-20T10:23:47;3.28;;;1.55;;
54145;SDS011;65909;49.422;7.738;2023-07-20T10:26:13;3.70;;;1.57;;
54145;SDS011;65909;49.422;7.738;2023-07-20T10:28:38;2.15;;;1.35;;
54145;SDS011;65909;49.422;7.738;2023-07-20T10:31:04;2.95;;;1.25;;
54145;SDS011;65909;49.422;7.738;2023-07-20T10:33:29;1.60;;;1.27;;
54145;SDS011;65909;49.422;7.738;2023-07-20T10:36:04;2.05;;;1.20;;
54145;SDS011;65909;49.422;7.738;2023-07-20T10:38:42;3.38;;;1.40;;
54145;SDS011;65909;49.422;7.738;2023-07-20T10:43:43;1.83;;;1.25;;
54145;SDS011;65909;49.422;7.738;2023-07-20T10:46:08;2.03;;;1.17;;
54145;SDS011;65909;49.422;7.738;2023-07-20T10:48:35;1.90;;;1.30;;
54145;SDS011;65909;49.422;7.738;2023-07-20T10:51:20;2.10;;;1.45;;
54145;SDS011;65909;49.422;7.738;2023-07-20T10:53:48;3.72;;;1.60;;
54145;SDS011;65909;49.422;7.738;2023-07-20T10:56:13;2.08;;;1.20;;
54145;SDS011;65909;49.422;7.738;2023-07-20T10:58:39;2.10;;;1.40;;
54145;SDS011;65909;49.422;7.738;2023-07-20T11:01:04;1.83;;;1.27;;
54145;SDS011;65909;49.422;7.738;2023-07-20T11:03:32;2.38;;;1.30;;
54145;SDS011;65909;49.422;7.738;2023-07-20T11:05:58;2.53;;;1.40;;
54145;SDS011;65909;49.422;7.738;2023-07-20T11:08:42;2.35;;;1.17;;
54145;SDS011;65909;49.422;7.738;2023-07-20T11:11:23;2.38;;;1.25;;
54145;SDS011;65909;49.422;7.738;2023-07-20T11:16:32;1.73;;;1.27;;
54145;SDS011;65909;49.422;7.738;2023-07-20T11:18:57;3.95;;;1.23;;
54145;SDS011;65909;49.422;7.738;2023-07-20T11:21:22;2.05;;;1.15;;
54145;SDS011;65909;49.422;7.738;2023-07-20T11:23:48;1.70;;;1.20;;
54145;SDS011;65909;49.422;7.738;2023-07-20T11:26:13;1.77;;;1.20;;
54145;SDS011;65909;49.422;7.738;2023-07-20T11:28:38;2.33;;;1.30;;
54145;SDS011;65909;49.422;7.738;2023-07-20T11:31:04;2.42;;;1.25;;
54145;SDS011;65909;49.422;7.738;2023-07-20T11:33:29;1.90;;;1.30;;
54145;SDS011;65909;49.422;7.738;2023-07-20T11:35:54;1.93;;;0.97;;
54145;SDS011;65909;49.422;7.738;2023-07-20T11:38:19;1.40;;;1.17;;
54145;SDS011;65909;49.422;7.738;2023-07-20T11:40:45;1.47;;;1.20;;
54145;SDS011;65909;49.422;7.738;2023-07-20T11:43:13;1.42;;;1.05;;
54145;SDS011;65909;49.422;7.738;2023-07-20T11:45:39;4.57;;;1.75;;
54145;SDS011;65909;49.422;7.738;2023-07-20T11:48:04;2.17;;;1.40;;
54145;SDS011;65909;49.422;7.738;2023-07-20T11:50:30;2.42;;;1.45;;
54145;SDS011;65909;49.422;7.738;2023-07-20T11:52:55;1.47;;;1.30;;
54145;SDS011;65909;49.422;7.738;2023-07-20T11:55:21;1.73;;;1.15;;
54145;SDS011;65909;49.422;7.738;2023-07-20T12:00:27;1.83;;;1.30;;
54145;SDS011;65909;49.422;7.738;2023-07-20T12:02:53;3.00;;;1.50;;
54145;SDS011;65909;49.422;7.738;2023-07-20T12:05:18;1.85;;;1.20;;
54145;SDS011;65909;49.422;7.738;2023-07-20T12:07:44;2.10;;;1.20;;
54145;SDS011;65909;49.422;7.738;2023-07-20T12:10:12;1.97;;;1.10;;
54145;SDS011;65909;49.422;7.738;2023-07-20T12:12:37;4.22;;;1.33;;
54145;SDS011;65909;49.422;7.738;2023-07-20T12:15:22;1.27;;;1.17;;
54145;SDS011;65909;49.422;7.738;2023-07-20T12:20:12;2.55;;;1.45;;
54145;SDS011;65909;49.422;7.738;2023-07-20T12:22:39;2.20;;;1.10;;
54145;SDS011;65909;49.422;7.738;2023-07-20T12:25:08;2.35;;;1.20;;
54145;SDS011;65909;49.422;7.738;2023-07-20T12:27:35;2.88;;;1.17;;
54145;SDS011;65909;49.422;7.738;2023-07-20T12:30:00;3.17;;;1.35;;
54145;SDS011;65909;49.422;7.738;2023-07-20T12:32:26;3.70;;;1.60;;
54145;SDS011;65909;49.422;7.738;2023-07-20T12:34:51;2.10;;;1.42;;
54145;SDS011;65909;49.422;7.738;2023-07-20T12:37:17;2.00;;;1.60;;
54145;SDS011;65909;49.422;7.738;2023-07-20T12:39:43;1.85;;;1.30;;
54145;SDS011;65909;49.422;7.738;2023-07-20T12:42:11;2.92;;;1.10;;
54145;SDS011;65909;49.422;7.738;2023-07-20T12:44:37;2.80;;;1.47;;
54145;SDS011;65909;49.422;7.738;2023-07-20T12:47:02;3.50;;;1.75;;
54145;SDS011;65909;49.422;7.738;2023-07-20T12:49:27;2.28;;;1.10;;
54145;SDS011;65909;49.422;7.738;2023-07-20T12:51:52;3.00;;;1.10;;
54145;SDS011;65909;49.422;7.738;2023-07-20T12:54:18;5.23;;;1.40;;
54145;SDS011;65909;49.422;7.738;2023-07-20T12:56:43;2.97;;;1.30;;
54145;SDS011;65909;49.422;7.738;2023-07-20T12:59:08;1.80;;;1.00;;
54145;SDS011;65909;49.422;7.738;2023-07-20T13:01:33;2.60;;;1.30;;
54145;SDS011;65909;49.422;7.738;2023-07-20T13:03:59;3.13;;;1.02;;
54145;SDS011;65909;49.422;7.738;2023-07-20T13:06:24;4.37;;;1.20;;
54145;SDS011;65909;49.422;7.738;2023-07-20T13:08:49;2.37;;;1.23;;
54145;SDS011;65909;49.422;7.738;2023-07-20T13:11:15;2.55;;;1.20;;
54145;SDS011;65909;49.422;7.738;2023-07-20T13:13:41;2.30;;;1.13;;
54145;SDS011;65909;49.422;7.738;2023-07-20T13:16:06;1.52;;;1.10;;
54145;SDS011;65909;49.422;7.738;2023-07-20T13:18:31;2.63;;;1.10;;
54145;SDS011;65909;49.422;7.738;2023-07-20T13:20:56;3.20;;;1.03;;
54145;SDS011;65909;49.422;7.738;2023-07-20T13:23:22;1.30;;;1.10;;
54145;SDS011;65909;49.422;7.738;2023-07-20T13:25:47;2.47;;;1.17;;
54145;SDS011;65909;49.422;7.738;2023-07-20T13:28:12;4.60;;;1.37;;
54145;SDS011;65909;49.422;7.738;2023-07-20T13:30:37;3.40;;;1.30;;
54145;SDS011;65909;49.422;7.738;2023-07-20T13:33:03;4.83;;;1.40;;
54145;SDS011;65909;49.422;7.738;2023-07-20T13:35:28;1.88;;;1.08;;
54145;SDS011;65909;49.422;7.738;2023-07-20T13:37:53;2.20;;;1.37;;
54145;SDS011;65909;49.422;7.738;2023-07-20T13:40:19;2.93;;;1.30;;
54145;SDS011;65909;49.422;7.738;2023-07-20T13:42:44;1.80;;;1.30;;
54145;SDS011;65909;49.422;7.738;2023-07-20T13:45:10;2.03;;;1.23;;
54145;SDS011;65909;49.422;7.738;2023-07-20T13:47:35;2.10;;;1.07;;
54145;SDS011;65909;49.422;7.738;2023-07-20T13:50:00;1.73;;;1.10;;
54145;SDS011;65909;49.422;7.738;2023-07-20T13:52:26;2.20;;;1.10;;
54145;SDS011;65909;49.422;7.738;2023-07-20T13:54:51;2.07;;;1.30;;
54145;SDS011;65909;49.422;7.738;2023-07-20T13:57:16;1.83;;;1.20;;
54145;SDS011;65909;49.422;7.738;2023-07-20T13:59:41;2.40;;;1.17;;
54145;SDS011;65909;49.422;7.738;2023-07-20T14:02:06;2.13;;;1.30;;
54145;SDS011;65909;49.422;7.738;2023-07-20T14:04:32;1.63;;;1.20;;
54145;SDS011;65909;49.422;7.738;2023-07-20T14:06:57;2.10;;;1.10;;
54145;SDS011;65909;49.422;7.738;2023-07-20T14:09:22;2.03;;;1.30;;
54145;SDS011;65909;49.422;7.738;2023-07-20T14:11:48;2.47;;;1.10;;
54145;SDS011;65909;49.422;7.738;2023-07-20T14:14:13;2.07;;;1.50;;
54145;SDS011;65909;49.422;7.738;2023-07-20T14:16:38;3.38;;;1.00;;
54145;SDS011;65909;49.422;7.738;2023-07-20T14:19:03;2.67;;;1.50;;
54145;SDS011;65909;49.422;7.738;2023-07-20T14:21:29;1.27;;;1.00;;
54145;SDS011;65909;49.422;7.738;2023-07-20T14:23:56;1.80;;;1.20;;
54145;SDS011;65909;49.422;7.738;2023-07-20T14:26:22;1.90;;;1.38;;
54145;SDS011;65909;49.422;7.738;2023-07-20T14:28:48;4.40;;;1.20;;
54145;SDS011;65909;49.422;7.738;2023-07-20T14:31:13;1.73;;;1.17;;
54145;SDS011;65909;49.422;7.738;2023-07-20T14:33:38;1.33;;;0.90;;
54145;SDS011;65909;49.422;7.738;2023-07-20T14:36:04;1.13;;;0.90;;
54145;SDS011;65909;49.422;7.738;2023-07-20T14:38:30;1.07;;;0.90;;
54145;SDS011;65909;49.422;7.738;2023-07-20T14:40:56;2.35;;;1.00;;
54145;SDS011;65909;49.422;7.738;2023-07-20T14:43:22;1.80;;;0.90;;
54145;SDS011;65909;49.422;7.738;2023-07-20T14:45:47;1.93;;;1.00;;
54145;SDS011;65909;49.422;7.738;2023-07-20T14:48:12;2.17;;;0.83;;
54145;SDS011;65909;49.422;7.738;2023-07-20T14:50:37;1.17;;;0.70;;
54145;SDS011;65909;49.422;7.738;2023-07-20T14:53:02;1.40;;;0.80;;
54145;SDS011;65909;49.422;7.738;2023-07-20T14:55:28;1.25;;;1.00;;